Royal Oak, Arkansas
Current Conditions -  °F | °C
As of 4:53 PM on Thursday 18 Dec 2014 (Local Time) from KLIT Reporting Station
Haze Haze  
Wind Chill: 40°   Ceiling: 800
Heat Index: 43°   Visibility: 5mi
Dew Point: 38°   Wind: 5mph
Humidity: 82%   Direction: 30°NNE
Pressure: 30.19"   Gusts: NA
Location:  34.5918°N, 92.381°W
Report Text: KLIT 182253Z 03004KT 5SM BR OVC008 06/03 A3019 RMK AO2 SLP226 T00610033
Loading
Personal Weather Stations






























Interactive Weather Map New forecast layout! Learn more

10-Day Weather Forecast

Advertisements
Track Severe Weather on mobile